sensor_id;sensor_type;location;lat;lon;timestamp;temperature;humidity
3644;DHT22;1838;50.742;7.158;2023-07-08T00:02:08;21.40;93.90
3644;DHT22;1838;50.742;7.158;2023-07-08T00:04:35;21.40;96.30
3644;DHT22;1838;50.742;7.158;2023-07-08T00:07:00;21.30;96.10
3644;DHT22;1838;50.742;7.158;2023-07-08T00:09:26;21.20;96.80
3644;DHT22;1838;50.742;7.158;2023-07-08T00:11:51;21.20;98.00
3644;DHT22;1838;50.742;7.158;2023-07-08T00:14:17;21.10;99.90
3644;DHT22;1838;50.742;7.158;2023-07-08T00:16:43;21.00;99.80
3644;DHT22;1838;50.742;7.158;2023-07-08T00:19:09;21.00;99.90
3644;DHT22;1838;50.742;7.158;2023-07-08T00:21:36;20.90;99.90
3644;DHT22;1838;50.742;7.158;2023-07-08T00:24:01;20.90;99.90
3644;DHT22;1838;50.742;7.158;2023-07-08T00:26:29;20.80;99.90
3644;DHT22;1838;50.742;7.158;2023-07-08T00:28:56;20.70;99.90
3644;DHT22;1838;50.742;7.158;2023-07-08T00:31:25;20.70;99.90
3644;DHT22;1838;50.742;7.158;2023-07-08T00:33:52;20.60;99.90
3644;DHT22;1838;50.742;7.158;2023-07-08T00:36:20;20.50;99.90
3644;DHT22;1838;50.742;7.158;2023-07-08T00:38:46;20.50;99.90
3644;DHT22;1838;50.742;7.158;2023-07-08T00:43:49;20.40;99.90
3644;DHT22;1838;50.742;7.158;2023-07-08T00:51:38;20.30;99.90
3644;DHT22;1838;50.742;7.158;2023-07-08T00:54:14;20.20;99.90
3644;DHT22;1838;50.742;7.158;2023-07-08T00:56:56;20.10;99.90
3644;DHT22;1838;50.742;7.158;2023-07-08T00:59:29;20.00;99.90
3644;DHT22;1838;50.742;7.158;2023-07-08T01:01:58;19.90;99.90
3644;DHT22;1838;50.742;7.158;2023-07-08T01:04:33;19.80;99.90
3644;DHT22;1838;50.742;7.158;2023-07-08T01:07:01;19.80;99.90
3644;DHT22;1838;50.742;7.158;2023-07-08T01:09:36;19.90;99.90
3644;DHT22;1838;50.742;7.158;2023-07-08T01:12:08;19.80;99.90
3644;DHT22;1838;50.742;7.158;2023-07-08T01:14:36;19.80;99.90
3644;DHT22;1838;50.742;7.158;2023-07-08T01:17:04;19.80;99.90
3644;DHT22;1838;50.742;7.158;2023-07-08T01:19:30;19.80;99.90
3644;DHT22;1838;50.742;7.158;2023-07-08T01:22:04;19.80;99.90
3644;DHT22;1838;50.742;7.158;2023-07-08T01:24:32;19.80;99.90
3644;DHT22;1838;50.742;7.158;2023-07-08T01:27:00;19.80;99.90
3644;DHT22;1838;50.742;7.158;2023-07-08T01:29:26;19.70;99.90
3644;DHT22;1838;50.742;7.158;2023-07-08T01:31:54;19.70;99.90
3644;DHT22;1838;50.742;7.158;2023-07-08T01:34:19;19.60;99.90
3644;DHT22;1838;50.742;7.158;2023-07-08T01:36:49;19.50;99.90
3644;DHT22;1838;50.742;7.158;2023-07-08T01:39:18;19.40;99.90
3644;DHT22;1838;50.742;7.158;2023-07-08T01:41:45;19.30;99.90
3644;DHT22;1838;50.742;7.158;2023-07-08T01:44:29;19.30;99.90
3644;DHT22;1838;50.742;7.158;2023-07-08T01:47:02;19.50;99.90
3644;DHT22;1838;50.742;7.158;2023-07-08T01:49:29;19.70;99.90
3644;DHT22;1838;50.742;7.158;2023-07-08T01:51:56;19.80;99.90
3644;DHT22;1838;50.742;7.158;2023-07-08T01:54:22;19.90;99.90
3644;DHT22;1838;50.742;7.158;2023-07-08T01:56:47;20.00;99.90
3644;DHT22;1838;50.742;7.158;2023-07-08T01:59:19;20.00;99.90
3644;DHT22;1838;50.742;7.158;2023-07-08T02:01:44;20.00;99.90
3644;DHT22;1838;50.742;7.158;2023-07-08T02:04:10;20.00;99.90
3644;DHT22;1838;50.742;7.158;2023-07-08T02:06:35;20.10;99.90
3644;DHT22;1838;50.742;7.158;2023-07-08T02:09:01;20.00;99.90
3644;DHT22;1838;50.742;7.158;2023-07-08T02:11:28;20.00;99.90
3644;DHT22;1838;50.742;7.158;2023-07-08T02:13:53;19.90;99.90
3644;DHT22;1838;50.742;7.158;2023-07-08T02:16:18;19.90;99.90
3644;DHT22;1838;50.742;7.158;2023-07-08T02:18:44;19.80;99.90
3644;DHT22;1838;50.742;7.158;2023-07-08T02:21:09;19.80;99.90
3644;DHT22;1838;50.742;7.158;2023-07-08T02:23:35;19.70;99.90
3644;DHT22;1838;50.742;7.158;2023-07-08T02:26:01;19.60;99.90
3644;DHT22;1838;50.742;7.158;2023-07-08T02:28:26;19.60;99.90
3644;DHT22;1838;50.742;7.158;2023-07-08T02:30:52;19.50;99.90
3644;DHT22;1838;50.742;7.158;2023-07-08T02:33:17;19.50;99.90
3644;DHT22;1838;50.742;7.158;2023-07-08T02:35:43;19.30;99.90
3644;DHT22;1838;50.742;7.158;2023-07-08T02:38:10;19.30;99.90
3644;DHT22;1838;50.742;7.158;2023-07-08T02:40:35;19.20;99.90
3644;DHT22;1838;50.742;7.158;2023-07-08T02:43:01;19.10;99.90
3644;DHT22;1838;50.742;7.158;2023-07-08T02:45:26;18.90;99.90
3644;DHT22;1838;50.742;7.158;2023-07-08T02:47:54;18.90;99.90
3644;DHT22;1838;50.742;7.158;2023-07-08T02:50:22;18.80;99.90
3644;DHT22;1838;50.742;7.158;2023-07-08T02:52:50;18.70;99.90
3644;DHT22;1838;50.742;7.158;2023-07-08T02:55:15;18.60;99.90
3644;DHT22;1838;50.742;7.158;2023-07-08T02:57:43;18.60;99.90
3644;DHT22;1838;50.742;7.158;2023-07-08T03:00:09;18.40;99.90
3644;DHT22;1838;50.742;7.158;2023-07-08T03:02:35;18.40;99.90
3644;DHT22;1838;50.742;7.158;2023-07-08T03:05:01;18.30;99.90
3644;DHT22;1838;50.742;7.158;2023-07-08T03:07:26;18.30;99.90
3644;DHT22;1838;50.742;7.158;2023-07-08T03:09:52;18.20;99.90
3644;DHT22;1838;50.742;7.158;2023-07-08T03:12:17;18.20;99.90
3644;DHT22;1838;50.742;7.158;2023-07-08T03:14:43;18.10;99.90
3644;DHT22;1838;50.742;7.158;2023-07-08T03:17:08;18.10;99.90
3644;DHT22;1838;50.742;7.158;2023-07-08T03:19:34;18.00;99.90
3644;DHT22;1838;50.742;7.158;2023-07-08T03:22:00;17.90;99.90
3644;DHT22;1838;50.742;7.158;2023-07-08T03:24:28;17.80;99.90
3644;DHT22;1838;50.742;7.158;2023-07-08T03:26:55;17.80;99.90
3644;DHT22;1838;50.742;7.158;2023-07-08T03:29:20;17.80;99.90
3644;DHT22;1838;50.742;7.158;2023-07-08T03:31:46;17.80;99.90
3644;DHT22;1838;50.742;7.158;2023-07-08T03:34:13;17.80;99.90
3644;DHT22;1838;50.742;7.158;2023-07-08T03:36:50;17.80;99.90
3644;DHT22;1838;50.742;7.158;2023-07-08T03:39:20;17.80;99.90
3644;DHT22;1838;50.742;7.158;2023-07-08T03:41:48;17.80;99.90
3644;DHT22;1838;50.742;7.158;2023-07-08T03:44:14;17.80;99.90
3644;DHT22;1838;50.742;7.158;2023-07-08T03:46:41;17.80;99.90
3644;DHT22;1838;50.742;7.158;2023-07-08T03:49:09;17.70;99.90
3644;DHT22;1838;50.742;7.158;2023-07-08T03:51:36;17.60;99.90
3644;DHT22;1838;50.742;7.158;2023-07-08T03:54:03;17.60;99.90
3644;DHT22;1838;50.742;7.158;2023-07-08T03:56:29;17.60;99.90
3644;DHT22;1838;50.742;7.158;2023-07-08T03:58:55;17.70;99.90
3644;DHT22;1838;50.742;7.158;2023-07-08T04:01:23;17.70;99.90
3644;DHT22;1838;50.742;7.158;2023-07-08T04:03:52;17.80;99.90
3644;DHT22;1838;50.742;7.158;2023-07-08T04:06:17;17.90;99.90
3644;DHT22;1838;50.742;7.158;2023-07-08T04:08:43;18.00;99.90
3644;DHT22;1838;50.742;7.158;2023-07-08T04:11:13;18.10;99.90
3644;DHT22;1838;50.742;7.158;2023-07-08T04:13:39;18.20;99.90
3644;DHT22;1838;50.742;7.158;2023-07-08T04:16:06;18.30;99.90
3644;DHT22;1838;50.742;7.158;2023-07-08T04:18:31;18.40;99.90
3644;DHT22;1838;50.742;7.158;2023-07-08T04:20:58;18.50;99.90
3644;DHT22;1838;50.742;7.158;2023-07-08T04:23:24;18.60;99.90
3644;DHT22;1838;50.742;7.158;2023-07-08T04:25:53;18.70;99.90
3644;DHT22;1838;50.742;7.158;2023-07-08T04:28:19;18.80;99.90
3644;DHT22;1838;50.742;7.158;2023-07-08T04:30:45;18.80;99.90
3644;DHT22;1838;50.742;7.158;2023-07-08T04:33:13;18.90;99.90
3644;DHT22;1838;50.742;7.158;2023-07-08T04:35:40;19.00;99.90
3644;DHT22;1838;50.742;7.158;2023-07-08T04:38:17;19.00;99.90
3644;DHT22;1838;50.742;7.158;2023-07-08T04:40:43;19.00;99.90
3644;DHT22;1838;50.742;7.158;2023-07-08T04:43:09;19.20;99.90
3644;DHT22;1838;50.742;7.158;2023-07-08T04:45:37;19.40;99.90
3644;DHT22;1838;50.742;7.158;2023-07-08T04:48:03;19.80;99.90
3644;DHT22;1838;50.742;7.158;2023-07-08T04:50:43;20.20;99.90
3644;DHT22;1838;50.742;7.158;2023-07-08T04:53:09;20.60;99.90
3644;DHT22;1838;50.742;7.158;2023-07-08T04:55:40;21.10;99.90
3644;DHT22;1838;50.742;7.158;2023-07-08T04:58:07;21.60;99.90
3644;DHT22;1838;50.742;7.158;2023-07-08T05:00:32;22.20;99.90
3644;DHT22;1838;50.742;7.158;2023-07-08T05:02:58;22.60;99.90
3644;DHT22;1838;50.742;7.158;2023-07-08T05:05:24;23.10;99.90
3644;DHT22;1838;50.742;7.158;2023-07-08T05:07:49;23.40;99.90
3644;DHT22;1838;50.742;7.158;2023-07-08T05:10:15;23.50;99.90
3644;DHT22;1838;50.742;7.158;2023-07-08T05:12:42;23.70;99.90
3644;DHT22;1838;50.742;7.158;2023-07-08T05:15:08;23.80;99.90
3644;DHT22;1838;50.742;7.158;2023-07-08T05:17:34;23.90;99.90
3644;DHT22;1838;50.742;7.158;2023-07-08T05:19:59;24.00;99.90
3644;DHT22;1838;50.742;7.158;2023-07-08T05:22:27;24.40;99.90
3644;DHT22;1838;50.742;7.158;2023-07-08T05:24:53;24.90;99.90
3644;DHT22;1838;50.742;7.158;2023-07-08T05:27:24;25.40;99.20
3644;DHT22;1838;50.742;7.158;2023-07-08T05:29:50;26.10;97.50
3644;DHT22;1838;50.742;7.158;2023-07-08T05:32:16;26.60;91.50
3644;DHT22;1838;50.742;7.158;2023-07-08T05:34:42;27.20;92.40
3644;DHT22;1838;50.742;7.158;2023-07-08T05:37:08;27.70;87.10
3644;DHT22;1838;50.742;7.158;2023-07-08T05:39:34;28.00;80.80
3644;DHT22;1838;50.742;7.158;2023-07-08T05:41:59;28.20;76.60
3644;DHT22;1838;50.742;7.158;2023-07-08T05:44:25;28.00;74.10
3644;DHT22;1838;50.742;7.158;2023-07-08T05:46:50;28.00;74.00
3644;DHT22;1838;50.742;7.158;2023-07-08T05:49:16;27.90;73.40
3644;DHT22;1838;50.742;7.158;2023-07-08T05:51:44;27.70;73.70
3644;DHT22;1838;50.742;7.158;2023-07-08T05:54:09;27.40;76.40
3644;DHT22;1838;50.742;7.158;2023-07-08T05:56:35;27.10;85.10
3644;DHT22;1838;50.742;7.158;2023-07-08T05:59:00;26.70;91.60
3644;DHT22;1838;50.742;7.158;2023-07-08T06:01:26;26.30;95.00
3644;DHT22;1838;50.742;7.158;2023-07-08T06:03:52;26.20;99.90
3644;DHT22;1838;50.742;7.158;2023-07-08T06:06:18;26.30;99.90
3644;DHT22;1838;50.742;7.158;2023-07-08T06:08:43;26.50;96.10
3644;DHT22;1838;50.742;7.158;2023-07-08T06:11:09;26.80;96.50
3644;DHT22;1838;50.742;7.158;2023-07-08T06:13:34;27.40;94.40
3644;DHT22;1838;50.742;7.158;2023-07-08T06:16:00;28.00;88.40
3644;DHT22;1838;50.742;7.158;2023-07-08T06:18:25;28.70;83.50
3644;DHT22;1838;50.742;7.158;2023-07-08T06:20:54;29.40;78.20
3644;DHT22;1838;50.742;7.158;2023-07-08T06:23:21;30.10;76.40
3644;DHT22;1838;50.742;7.158;2023-07-08T06:25:47;30.70;71.20
3644;DHT22;1838;50.742;7.158;2023-07-08T06:28:12;31.30;67.00
3644;DHT22;1838;50.742;7.158;2023-07-08T06:30:38;31.80;66.10
3644;DHT22;1838;50.742;7.158;2023-07-08T06:33:04;32.20;60.40
3644;DHT22;1838;50.742;7.158;2023-07-08T06:35:30;32.50;59.50
3644;DHT22;1838;50.742;7.158;2023-07-08T06:37:56;32.80;59.20
3644;DHT22;1838;50.742;7.158;2023-07-08T06:40:21;33.10;57.50
3644;DHT22;1838;50.742;7.158;2023-07-08T06:42:47;33.20;55.50
3644;DHT22;1838;50.742;7.158;2023-07-08T06:45:12;32.90;54.40
3644;DHT22;1838;50.742;7.158;2023-07-08T06:47:38;32.60;55.20
3644;DHT22;1838;50.742;7.158;2023-07-08T06:50:04;32.40;54.00
3644;DHT22;1838;50.742;7.158;2023-07-08T06:52:30;32.40;54.20
3644;DHT22;1838;50.742;7.158;2023-07-08T06:55:00;32.20;55.10
3644;DHT22;1838;50.742;7.158;2023-07-08T06:57:26;32.30;55.30
3644;DHT22;1838;50.742;7.158;2023-07-08T06:59:52;32.70;54.70
3644;DHT22;1838;50.742;7.158;2023-07-08T07:02:17;33.20;54.50
3644;DHT22;1838;50.742;7.158;2023-07-08T07:04:43;33.50;52.30
3644;DHT22;1838;50.742;7.158;2023-07-08T07:07:09;34.00;53.00
3644;DHT22;1838;50.742;7.158;2023-07-08T07:09:34;34.10;51.80
3644;DHT22;1838;50.742;7.158;2023-07-08T07:12:00;34.20;52.40
3644;DHT22;1838;50.742;7.158;2023-07-08T07:14:26;34.20;52.30
3644;DHT22;1838;50.742;7.158;2023-07-08T07:16:51;34.40;51.80
3644;DHT22;1838;50.742;7.158;2023-07-08T07:19:17;34.30;52.00
3644;DHT22;1838;50.742;7.158;2023-07-08T07:21:42;34.20;51.90
3644;DHT22;1838;50.742;7.158;2023-07-08T07:24:08;33.80;52.70
3644;DHT22;1838;50.742;7.158;2023-07-08T07:26:34;33.80;52.50
3644;DHT22;1838;50.742;7.158;2023-07-08T07:28:59;33.60;51.00
3644;DHT22;1838;50.742;7.158;2023-07-08T07:31:25;33.20;53.00
3644;DHT22;1838;50.742;7.158;2023-07-08T07:33:50;33.10;53.60
3644;DHT22;1838;50.742;7.158;2023-07-08T07:36:16;33.10;52.10
3644;DHT22;1838;50.742;7.158;2023-07-08T07:38:41;33.20;53.40
3644;DHT22;1838;50.742;7.158;2023-07-08T07:41:07;33.60;53.00
3644;DHT22;1838;50.742;7.158;2023-07-08T07:43:35;34.00;51.40
3644;DHT22;1838;50.742;7.158;2023-07-08T07:46:01;34.00;50.60
3644;DHT22;1838;50.742;7.158;2023-07-08T07:48:27;34.00;51.30
3644;DHT22;1838;50.742;7.158;2023-07-08T07:50:52;34.10;51.20
3644;DHT22;1838;50.742;7.158;2023-07-08T07:53:18;34.10;51.30
3644;DHT22;1838;50.742;7.158;2023-07-08T07:55:43;34.40;51.20
3644;DHT22;1838;50.742;7.158;2023-07-08T07:58:09;34.60;50.80
3644;DHT22;1838;50.742;7.158;2023-07-08T08:00:37;34.70;50.10
3644;DHT22;1838;50.742;7.158;2023-07-08T08:03:03;35.20;50.90
3644;DHT22;1838;50.742;7.158;2023-07-08T08:05:29;35.80;49.90
3644;DHT22;1838;50.742;7.158;2023-07-08T08:07:54;36.30;48.40
3644;DHT22;1838;50.742;7.158;2023-07-08T08:10:20;36.50;48.10
3644;DHT22;1838;50.742;7.158;2023-07-08T08:12:45;36.90;47.80
3644;DHT22;1838;50.742;7.158;2023-07-08T08:15:13;37.40;47.20
3644;DHT22;1838;50.742;7.158;2023-07-08T08:17:39;37.90;46.60
3644;DHT22;1838;50.742;7.158;2023-07-08T08:20:05;38.40;45.70
3644;DHT22;1838;50.742;7.158;2023-07-08T08:22:31;38.80;44.50
3644;DHT22;1838;50.742;7.158;2023-07-08T08:24:56;38.90;43.40
3644;DHT22;1838;50.742;7.158;2023-07-08T08:27:22;39.10;43.10
3644;DHT22;1838;50.742;7.158;2023-07-08T08:29:47;39.20;43.20
3644;DHT22;1838;50.742;7.158;2023-07-08T08:32:13;38.50;41.60
3644;DHT22;1838;50.742;7.158;2023-07-08T08:34:39;37.90;43.00
3644;DHT22;1838;50.742;7.158;2023-07-08T08:37:05;37.30;42.90
3644;DHT22;1838;50.742;7.158;2023-07-08T08:39:30;36.60;43.30
3644;DHT22;1838;50.742;7.158;2023-07-08T08:41:56;36.00;43.60
3644;DHT22;1838;50.742;7.158;2023-07-08T08:44:33;35.50;45.80
3644;DHT22;1838;50.742;7.158;2023-07-08T08:47:37;35.40;46.00
3644;DHT22;1838;50.742;7.158;2023-07-08T08:52:59;35.60;45.10
3644;DHT22;1838;50.742;7.158;2023-07-08T08:55:25;35.50;45.80
3644;DHT22;1838;50.742;7.158;2023-07-08T09:00:34;35.50;45.20
3644;DHT22;1838;50.742;7.158;2023-07-08T09:03:10;35.60;45.40
3644;DHT22;1838;50.742;7.158;2023-07-08T09:05:36;35.70;44.90
3644;DHT22;1838;50.742;7.158;2023-07-08T09:08:13;35.50;45.10
3644;DHT22;1838;50.742;7.158;2023-07-08T09:13:15;35.30;45.90
3644;DHT22;1838;50.742;7.158;2023-07-08T09:15:42;35.40;45.60
3644;DHT22;1838;50.742;7.158;2023-07-08T09:18:25;35.00;45.60
3644;DHT22;1838;50.742;7.158;2023-07-08T09:20:55;34.40;45.90
3644;DHT22;1838;50.742;7.158;2023-07-08T09:23:29;34.00;47.10
3644;DHT22;1838;50.742;7.158;2023-07-08T09:26:05;33.90;48.10
3644;DHT22;1838;50.742;7.158;2023-07-08T09:28:42;33.90;47.80
3644;DHT22;1838;50.742;7.158;2023-07-08T09:31:21;33.90;46.90
3644;DHT22;1838;50.742;7.158;2023-07-08T09:33:47;33.60;47.90
3644;DHT22;1838;50.742;7.158;2023-07-08T09:36:18;33.80;48.30
3644;DHT22;1838;50.742;7.158;2023-07-08T09:38:47;33.90;46.70
3644;DHT22;1838;50.742;7.158;2023-07-08T09:41:14;34.00;47.30
3644;DHT22;1838;50.742;7.158;2023-07-08T09:43:42;34.00;46.50
3644;DHT22;1838;50.742;7.158;2023-07-08T09:46:12;34.30;46.70
3644;DHT22;1838;50.742;7.158;2023-07-08T09:48:38;34.60;47.30
3644;DHT22;1838;50.742;7.158;2023-07-08T09:51:04;34.90;46.40
3644;DHT22;1838;50.742;7.158;2023-07-08T09:53:30;35.10;45.90
3644;DHT22;1838;50.742;7.158;2023-07-08T09:56:00;35.20;45.50
3644;DHT22;1838;50.742;7.158;2023-07-08T09:58:36;35.40;45.50
3644;DHT22;1838;50.742;7.158;2023-07-08T10:01:22;35.70;44.80
3644;DHT22;1838;50.742;7.158;2023-07-08T10:03:49;35.90;44.50
3644;DHT22;1838;50.742;7.158;2023-07-08T10:06:18;35.80;45.20
3644;DHT22;1838;50.742;7.158;2023-07-08T10:08:46;36.00;45.30
3644;DHT22;1838;50.742;7.158;2023-07-08T10:11:30;36.20;45.60
3644;DHT22;1838;50.742;7.158;2023-07-08T10:14:39;36.30;45.40
3644;DHT22;1838;50.742;7.158;2023-07-08T10:17:05;35.80;45.00
3644;DHT22;1838;50.742;7.158;2023-07-08T10:19:31;35.60;45.60
3644;DHT22;1838;50.742;7.158;2023-07-08T10:22:12;35.60;45.00
3644;DHT22;1838;50.742;7.158;2023-07-08T10:24:47;35.40;45.60
3644;DHT22;1838;50.742;7.158;2023-07-08T10:27:50;35.30;44.80
3644;DHT22;1838;50.742;7.158;2023-07-08T10:30:25;35.30;45.00
3644;DHT22;1838;50.742;7.158;2023-07-08T10:35:34;35.30;44.80
3644;DHT22;1838;50.742;7.158;2023-07-08T10:38:14;35.40;45.40
3644;DHT22;1838;50.742;7.158;2023-07-08T10:46:52;35.80;45.60
3644;DHT22;1838;50.742;7.158;2023-07-08T10:54:33;36.20;43.90
3644;DHT22;1838;50.742;7.158;2023-07-08T11:05:57;36.90;44.10
3644;DHT22;1838;50.742;7.158;2023-07-08T11:10:57;37.80;43.40
3644;DHT22;1838;50.742;7.158;2023-07-08T11:13:28;38.30;43.20
3644;DHT22;1838;50.742;7.158;2023-07-08T11:21:27;38.90;41.90
3644;DHT22;1838;50.742;7.158;2023-07-08T11:26:55;38.90;41.60
3644;DHT22;1838;50.742;7.158;2023-07-08T11:29:26;39.10;42.10
3644;DHT22;1838;50.742;7.158;2023-07-08T11:31:56;39.30;42.50
3644;DHT22;1838;50.742;7.158;2023-07-08T11:34:23;39.60;41.90
3644;DHT22;1838;50.742;7.158;2023-07-08T11:36:49;39.60;41.20
3644;DHT22;1838;50.742;7.158;2023-07-08T11:39:41;39.40;41.10
3644;DHT22;1838;50.742;7.158;2023-07-08T11:42:25;38.90;41.50
3644;DHT22;1838;50.742;7.158;2023-07-08T11:44:57;38.40;41.20
3644;DHT22;1838;50.742;7.158;2023-07-08T11:47:40;38.00;42.80
3644;DHT22;1838;50.742;7.158;2023-07-08T11:50:29;37.50;42.20
3644;DHT22;1838;50.742;7.158;2023-07-08T11:53:00;37.50;42.70
3644;DHT22;1838;50.742;7.158;2023-07-08T11:55:47;37.60;42.50
3644;DHT22;1838;50.742;7.158;2023-07-08T11:58:24;37.70;42.60
3644;DHT22;1838;50.742;7.158;2023-07-08T12:04:00;37.90;42.70
3644;DHT22;1838;50.742;7.158;2023-07-08T12:08:53;38.00;41.70
3644;DHT22;1838;50.742;7.158;2023-07-08T12:11:28;38.10;41.00
3644;DHT22;1838;50.742;7.158;2023-07-08T12:14:01;38.00;41.90
3644;DHT22;1838;50.742;7.158;2023-07-08T12:16:29;38.10;41.50
3644;DHT22;1838;50.742;7.158;2023-07-08T12:18:55;37.90;42.10
3644;DHT22;1838;50.742;7.158;2023-07-08T12:21:23;38.00;41.80
3644;DHT22;1838;50.742;7.158;2023-07-08T12:23:51;38.00;42.40
3644;DHT22;1838;50.742;7.158;2023-07-08T12:26:17;38.10;41.40
3644;DHT22;1838;50.742;7.158;2023-07-08T12:28:43;38.10;41.90
3644;DHT22;1838;50.742;7.158;2023-07-08T12:31:17;38.30;42.60
3644;DHT22;1838;50.742;7.158;2023-07-08T12:33:44;38.50;42.20
3644;DHT22;1838;50.742;7.158;2023-07-08T12:36:11;38.80;41.80
3644;DHT22;1838;50.742;7.158;2023-07-08T12:38:41;38.80;40.00
3644;DHT22;1838;50.742;7.158;2023-07-08T12:41:20;38.50;41.30
3644;DHT22;1838;50.742;7.158;2023-07-08T12:43:46;38.30;40.60
3644;DHT22;1838;50.742;7.158;2023-07-08T12:46:14;38.10;42.00
3644;DHT22;1838;50.742;7.158;2023-07-08T12:48:40;38.20;41.30
3644;DHT22;1838;50.742;7.158;2023-07-08T12:51:14;38.30;42.80
3644;DHT22;1838;50.742;7.158;2023-07-08T12:53:41;38.40;41.20
3644;DHT22;1838;50.742;7.158;2023-07-08T12:56:07;38.60;41.40
3644;DHT22;1838;50.742;7.158;2023-07-08T12:58:36;38.70;41.40
3644;DHT22;1838;50.742;7.158;2023-07-08T13:01:04;38.90;41.60
3644;DHT22;1838;50.742;7.158;2023-07-08T13:03:39;38.60;41.60
3644;DHT22;1838;50.742;7.158;2023-07-08T13:06:08;38.30;41.20
3644;DHT22;1838;50.742;7.158;2023-07-08T13:08:36;38.30;41.60
3644;DHT22;1838;50.742;7.158;2023-07-08T13:11:03;38.70;40.80
3644;DHT22;1838;50.742;7.158;2023-07-08T13:13:33;39.00;40.80
3644;DHT22;1838;50.742;7.158;2023-07-08T13:16:00;38.70;40.60
3644;DHT22;1838;50.742;7.158;2023-07-08T13:18:37;38.40;41.30
3644;DHT22;1838;50.742;7.158;2023-07-08T13:21:05;38.50;41.60
3644;DHT22;1838;50.742;7.158;2023-07-08T13:23:32;38.50;41.40
3644;DHT22;1838;50.742;7.158;2023-07-08T13:25:58;38.20;41.40
3644;DHT22;1838;50.742;7.158;2023-07-08T13:28:29;37.90;41.80
3644;DHT22;1838;50.742;7.158;2023-07-08T13:31:00;37.70;41.80
3644;DHT22;1838;50.742;7.158;2023-07-08T13:33:31;37.70;42.20
3644;DHT22;1838;50.742;7.158;2023-07-08T13:35:56;37.70;42.90
3644;DHT22;1838;50.742;7.158;2023-07-08T13:38:25;37.80;43.80
3644;DHT22;1838;50.742;7.158;2023-07-08T13:40:56;37.80;42.80
3644;DHT22;1838;50.742;7.158;2023-07-08T13:43:24;37.70;43.00
3644;DHT22;1838;50.742;7.158;2023-07-08T13:45:50;37.70;43.00
3644;DHT22;1838;50.742;7.158;2023-07-08T13:51:08;37.20;43.20
3644;DHT22;1838;50.742;7.158;2023-07-08T13:53:53;37.00;43.80
3644;DHT22;1838;50.742;7.158;2023-07-08T13:56:32;36.70;43.90
3644;DHT22;1838;50.742;7.158;2023-07-08T13:59:04;36.60;44.70
3644;DHT22;1838;50.742;7.158;2023-07-08T14:01:31;36.50;44.70
3644;DHT22;1838;50.742;7.158;2023-07-08T14:03:57;36.50;44.10
3644;DHT22;1838;50.742;7.158;2023-07-08T14:06:33;36.70;44.40
3644;DHT22;1838;50.742;7.158;2023-07-08T14:09:11;36.70;44.20
3644;DHT22;1838;50.742;7.158;2023-07-08T14:11:37;36.70;45.30
3644;DHT22;1838;50.742;7.158;2023-07-08T14:14:02;36.90;45.10
3644;DHT22;1838;50.742;7.158;2023-07-08T14:16:29;37.20;44.70
3644;DHT22;1838;50.742;7.158;2023-07-08T14:18:56;37.40;44.50
3644;DHT22;1838;50.742;7.158;2023-07-08T14:21:24;37.50;45.20
3644;DHT22;1838;50.742;7.158;2023-07-08T14:23:49;37.50;44.30
3644;DHT22;1838;50.742;7.158;2023-07-08T14:26:15;37.50;44.00
3644;DHT22;1838;50.742;7.158;2023-07-08T14:28:40;37.40;45.50
3644;DHT22;1838;50.742;7.158;2023-07-08T14:31:10;37.10;44.40
3644;DHT22;1838;50.742;7.158;2023-07-08T14:33:37;37.00;45.10
3644;DHT22;1838;50.742;7.158;2023-07-08T14:36:03;36.90;44.40
3644;DHT22;1838;50.742;7.158;2023-07-08T14:38:28;37.00;46.30
3644;DHT22;1838;50.742;7.158;2023-07-08T14:40:54;37.00;45.50
3644;DHT22;1838;50.742;7.158;2023-07-08T14:43:30;36.90;45.70
3644;DHT22;1838;50.742;7.158;2023-07-08T14:46:01;36.70;46.40
3644;DHT22;1838;50.742;7.158;2023-07-08T14:48:31;36.50;47.10
3644;DHT22;1838;50.742;7.158;2023-07-08T14:50:57;36.60;48.00
3644;DHT22;1838;50.742;7.158;2023-07-08T14:53:23;36.70;43.90
3644;DHT22;1838;50.742;7.158;2023-07-08T14:55:51;36.80;45.70
3644;DHT22;1838;50.742;7.158;2023-07-08T14:58:28;37.10;45.40
3644;DHT22;1838;50.742;7.158;2023-07-08T15:00:55;37.40;44.60
3644;DHT22;1838;50.742;7.158;2023-07-08T15:03:24;37.70;43.90
3644;DHT22;1838;50.742;7.158;2023-07-08T15:05:50;38.00;44.40
3644;DHT22;1838;50.742;7.158;2023-07-08T15:08:16;37.90;44.90
3644;DHT22;1838;50.742;7.158;2023-07-08T15:10:49;37.70;45.80
3644;DHT22;1838;50.742;7.158;2023-07-08T15:13:16;37.50;45.70
3644;DHT22;1838;50.742;7.158;2023-07-08T15:15:42;37.40;45.40
3644;DHT22;1838;50.742;7.158;2023-07-08T15:18:14;37.10;45.00
3644;DHT22;1838;50.742;7.158;2023-07-08T15:20:41;37.00;45.10
3644;DHT22;1838;50.742;7.158;2023-07-08T15:23:07;36.80;44.80
3644;DHT22;1838;50.742;7.158;2023-07-08T15:25:33;36.60;45.00
3644;DHT22;1838;50.742;7.158;2023-07-08T15:28:01;36.70;45.50
3644;DHT22;1838;50.742;7.158;2023-07-08T15:30:28;36.80;46.00
3644;DHT22;1838;50.742;7.158;2023-07-08T15:32:55;36.70;45.40
3644;DHT22;1838;50.742;7.158;2023-07-08T15:35:22;36.70;47.80
3644;DHT22;1838;50.742;7.158;2023-07-08T15:37:50;36.50;49.00
3644;DHT22;1838;50.742;7.158;2023-07-08T15:40:18;36.50;48.70
3644;DHT22;1838;50.742;7.158;2023-07-08T15:42:46;36.50;49.60
3644;DHT22;1838;50.742;7.158;2023-07-08T15:45:17;36.60;49.70
3644;DHT22;1838;50.742;7.158;2023-07-08T15:47:44;36.80;49.70
3644;DHT22;1838;50.742;7.158;2023-07-08T15:50:15;37.00;48.10
3644;DHT22;1838;50.742;7.158;2023-07-08T15:52:41;36.90;46.80
3644;DHT22;1838;50.742;7.158;2023-07-08T15:55:08;36.80;46.70
3644;DHT22;1838;50.742;7.158;2023-07-08T15:57:47;36.70;46.10
3644;DHT22;1838;50.742;7.158;2023-07-08T16:00:19;36.50;46.30
3644;DHT22;1838;50.742;7.158;2023-07-08T16:02:51;36.40;47.30
3644;DHT22;1838;50.742;7.158;2023-07-08T16:05:18;36.30;47.60
3644;DHT22;1838;50.742;7.158;2023-07-08T16:07:46;36.30;48.90
3644;DHT22;1838;50.742;7.158;2023-07-08T16:10:12;36.40;48.10
3644;DHT22;1838;50.742;7.158;2023-07-08T16:12:38;36.40;47.10
3644;DHT22;1838;50.742;7.158;2023-07-08T16:15:04;36.10;48.90
3644;DHT22;1838;50.742;7.158;2023-07-08T16:17:33;35.90;49.00
3644;DHT22;1838;50.742;7.158;2023-07-08T16:20:00;35.80;48.10
3644;DHT22;1838;50.742;7.158;2023-07-08T16:22:26;35.60;49.40
3644;DHT22;1838;50.742;7.158;2023-07-08T16:24:51;35.50;52.50
3644;DHT22;1838;50.742;7.158;2023-07-08T16:27:17;35.40;51.10
3644;DHT22;1838;50.742;7.158;2023-07-08T16:29:42;35.20;54.80
3644;DHT22;1838;50.742;7.158;2023-07-08T16:32:11;35.00;57.50
3644;DHT22;1838;50.742;7.158;2023-07-08T16:34:38;34.80;56.60
3644;DHT22;1838;50.742;7.158;2023-07-08T16:37:03;34.60;58.10
3644;DHT22;1838;50.742;7.158;2023-07-08T16:39:29;34.40;57.40
3644;DHT22;1838;50.742;7.158;2023-07-08T16:41:54;34.30;58.40
3644;DHT22;1838;50.742;7.158;2023-07-08T16:44:20;34.10;59.00
3644;DHT22;1838;50.742;7.158;2023-07-08T16:46:45;33.90;58.90
3644;DHT22;1838;50.742;7.158;2023-07-08T16:49:11;33.80;60.10
3644;DHT22;1838;50.742;7.158;2023-07-08T16:51:37;33.70;61.50
3644;DHT22;1838;50.742;7.158;2023-07-08T16:56:34;33.60;67.60
3644;DHT22;1838;50.742;7.158;2023-07-08T16:59:00;33.40;68.30
3644;DHT22;1838;50.742;7.158;2023-07-08T17:01:27;33.40;65.70
3644;DHT22;1838;50.742;7.158;2023-07-08T17:03:54;33.40;65.00
3644;DHT22;1838;50.742;7.158;2023-07-08T17:06:20;33.40;64.30
3644;DHT22;1838;50.742;7.158;2023-07-08T17:08:45;33.30;65.70
3644;DHT22;1838;50.742;7.158;2023-07-08T17:11:11;33.40;67.10